Time;durP1;ratioP1;P1;durP2;ratioP2;P2;SDS_P1;SDS_P2;PMS_P1;PMS_P2;Temp;Humidity;BMP_temperature;BMP_pressure;BME280_temperature;BME280_humidity;BME280_pressure;Samples;Min_cycle;Max_cycle;Signal;HPM_P1;HPM_P2
2022/04/24 00:00:35;;;;;;;;;;;13.30;66.60;;;;;;5024197;28;19952;-70
2022/04/24 00:03:02;;;;;;;;;;;13.30;66.60;;;;;;5028977;28;20537;-70
2022/04/24 00:05:28;;;;;;;;;;;13.30;66.60;;;;;;5027848;28;19955;-70
2022/04/24 00:07:55;;;;;;;;;;;13.30;66.70;;;;;;5032381;28;19929;-69
2022/04/24 00:10:21;;;;;;;;;;;13.30;66.80;;;;;;5031439;28;19929;-70
2022/04/24 00:12:49;;;;;;;;;;;13.20;66.70;;;;;;5023781;28;19958;-70
2022/04/24 00:15:16;;;;;;;;;;;13.20;66.80;;;;;;5022601;28;20713;-69
2022/04/24 00:17:42;;;;;;;;;;;13.20;66.80;;;;;;5027978;28;19963;-69
2022/04/24 00:20:10;;;;;;;;;;;13.20;66.90;;;;;;5025440;28;19929;-70
2022/04/24 00:22:36;;;;;;;;;;;13.20;66.90;;;;;;5025607;28;20012;-70
2022/04/24 00:25:03;;;;;;;;;;;13.20;66.90;;;;;;5025756;28;19933;-70
2022/04/24 00:27:29;;;;;;;;;;;13.10;66.90;;;;;;5026208;28;19932;-69
2022/04/24 00:29:57;;;;;;;;;;;13.10;67.00;;;;;;5021749;28;19929;-71
2022/04/24 00:32:24;;;;;;;;;;;13.10;67.00;;;;;;5026776;28;19929;-69
2022/04/24 00:34:50;;;;;;;;;;;13.10;67.10;;;;;;5028140;28;19933;-70
2022/04/24 00:37:17;;;;;;;;;;;13.10;67.10;;;;;;5027693;28;19949;-70
2022/04/24 00:39:43;;;;;;;;;;;13.00;67.10;;;;;;5024912;28;19936;-70
2022/04/24 00:42:10;;;;;;;;;;;13.00;67.10;;;;;;5025079;28;19925;-70
2022/04/24 00:44:36;;;;;;;;;;;13.00;67.20;;;;;;5023301;28;19951;-71
2022/04/24 00:47:07;;;;;;;;;;;13.40;67.40;;;;;;5024585;28;19972;-69
2022/04/24 00:49:34;;;;;;;;;;;13.00;67.20;;;;;;5024037;28;19929;-70
2022/04/24 00:52:00;;;;;;;;;;;13.00;67.30;;;;;;5021437;28;19930;-69
2022/04/24 00:54:27;;;;;;;;;;;13.00;67.40;;;;;;5020330;28;19933;-68
2022/04/24 00:56:53;;;;;;;;;;;12.90;67.40;;;;;;5021267;28;19968;-70
2022/04/24 00:59:20;;;;;;;;;;;12.90;67.50;;;;;;5020980;28;19949;-70
2022/04/24 01:01:46;;;;;;;;;;;12.90;67.70;;;;;;5022938;28;19933;-70
2022/04/24 01:04:14;;;;;;;;;;;12.90;67.70;;;;;;5023126;28;19925;-69
2022/04/24 01:06:41;;;;;;;;;;;12.90;67.70;;;;;;5024773;28;19925;-70
2022/04/24 01:09:08;;;;;;;;;;;12.90;67.90;;;;;;5018078;28;19956;-69
2022/04/24 01:11:35;;;;;;;;;;;12.80;67.90;;;;;;5023357;28;20465;-70
2022/04/24 01:14:01;;;;;;;;;;;12.70;67.80;;;;;;5022725;28;20683;-70
2022/04/24 01:16:28;;;;;;;;;;;12.80;68.00;;;;;;5016715;28;19928;-69
2022/04/24 01:18:55;;;;;;;;;;;12.80;68.10;;;;;;5024296;28;19925;-71
2022/04/24 01:21:22;;;;;;;;;;;12.80;68.30;;;;;;5019937;28;19941;-70
2022/04/24 01:23:49;;;;;;;;;;;12.70;68.20;;;;;;5017311;28;19929;-70
2022/04/24 01:26:15;;;;;;;;;;;12.70;68.30;;;;;;5024095;28;19936;-70
2022/04/24 01:28:42;;;;;;;;;;;12.70;68.30;;;;;;5021597;28;19929;-70
2022/04/24 01:31:09;;;;;;;;;;;12.70;68.50;;;;;;5022401;28;19929;-69
2022/04/24 01:33:36;;;;;;;;;;;12.70;68.50;;;;;;5021424;28;19999;-70
2022/04/24 01:36:02;;;;;;;;;;;12.70;68.60;;;;;;5023987;28;19936;-70
2022/04/24 01:38:30;;;;;;;;;;;12.60;68.70;;;;;;5023438;28;19929;-70
2022/04/24 01:40:57;;;;;;;;;;;12.60;68.70;;;;;;5022766;28;19933;-70
2022/04/24 01:43:23;;;;;;;;;;;12.60;68.90;;;;;;5024217;28;19936;-70
2022/04/24 01:45:50;;;;;;;;;;;12.60;69.00;;;;;;5021270;28;19929;-70
2022/04/24 01:48:16;;;;;;;;;;;12.60;69.10;;;;;;5021917;28;19933;-70
2022/04/24 01:50:43;;;;;;;;;;;12.60;69.10;;;;;;5024462;28;19929;-70
2022/04/24 01:53:09;;;;;;;;;;;12.50;69.10;;;;;;5021952;28;19957;-69
2022/04/24 01:55:37;;;;;;;;;;;12.50;69.10;;;;;;5018315;28;19992;-70
2022/04/24 01:58:04;;;;;;;;;;;12.50;69.10;;;;;;5020878;28;20555;-69
2022/04/24 02:00:30;;;;;;;;;;;12.50;69.10;;;;;;5019218;28;19952;-70
2022/04/24 02:02:57;;;;;;;;;;;12.50;69.20;;;;;;5022780;28;19943;-69
2022/04/24 02:05:23;;;;;;;;;;;12.50;69.20;;;;;;5022332;28;19964;-70
2022/04/24 02:07:50;;;;;;;;;;;12.50;69.30;;;;;;5023948;28;20386;-70
2022/04/24 02:10:16;;;;;;;;;;;12.50;69.40;;;;;;5021397;28;19940;-70
2022/04/24 02:12:44;;;;;;;;;;;12.50;69.50;;;;;;5021115;28;19929;-69
2022/04/24 02:15:11;;;;;;;;;;;12.50;69.50;;;;;;5016577;28;19929;-70
2022/04/24 02:17:37;;;;;;;;;;;12.50;69.60;;;;;;5022641;28;19933;-70
2022/04/24 02:20:05;;;;;;;;;;;12.50;69.60;;;;;;5023009;28;19933;-69
2022/04/24 02:22:32;;;;;;;;;;;12.40;69.60;;;;;;5025753;28;19933;-69
2022/04/24 02:24:59;;;;;;;;;;;12.40;69.70;;;;;;5021009;28;20544;-70
2022/04/24 02:27:25;;;;;;;;;;;12.50;69.80;;;;;;5023281;28;20751;-70
2022/04/24 02:29:53;;;;;;;;;;;12.40;69.80;;;;;;5022669;28;19932;-70
2022/04/24 02:32:20;;;;;;;;;;;12.40;69.80;;;;;;5022073;28;20304;-69
2022/04/24 02:34:47;;;;;;;;;;;12.40;69.90;;;;;;5024421;28;19933;-69
2022/04/24 02:37:13;;;;;;;;;;;12.40;69.90;;;;;;5021555;28;19963;-69
2022/04/24 02:39:40;;;;;;;;;;;12.40;69.90;;;;;;5023480;28;19932;-70
2022/04/24 02:42:06;;;;;;;;;;;12.40;69.90;;;;;;5022059;28;19933;-70
2022/04/24 02:44:33;;;;;;;;;;;12.40;70.00;;;;;;5022690;28;19925;-69
2022/04/24 02:47:01;;;;;;;;;;;12.30;70.00;;;;;;5019192;28;19929;-69
2022/04/24 02:49:27;;;;;;;;;;;12.30;70.00;;;;;;5026721;28;19929;-69
2022/04/24 02:51:54;;;;;;;;;;;12.30;70.00;;;;;;5023220;28;19929;-70
2022/04/24 02:54:20;;;;;;;;;;;12.40;70.20;;;;;;5020686;28;19928;-68
2022/04/24 02:56:47;;;;;;;;;;;12.30;70.20;;;;;;5021600;28;20304;-69
2022/04/24 02:59:15;;;;;;;;;;;12.30;70.30;;;;;;5019794;28;19933;-69
2022/04/24 03:01:41;;;;;;;;;;;12.30;69.80;;;;;;5019351;28;19940;-70
2022/04/24 03:04:09;;;;;;;;;;;12.30;70.40;;;;;;5021281;28;19937;-68
2022/04/24 03:06:36;;;;;;;;;;;12.30;70.40;;;;;;5022153;28;19929;-70
2022/04/24 03:09:02;;;;;;;;;;;12.30;70.50;;;;;;5020697;28;19929;-69
2022/04/24 03:11:29;;;;;;;;;;;12.30;70.60;;;;;;5021205;28;19936;-70
2022/04/24 03:13:55;;;;;;;;;;;12.30;70.70;;;;;;5014307;28;20529;-70
2022/04/24 03:16:22;;;;;;;;;;;12.30;70.80;;;;;;5015493;28;19983;-70
2022/04/24 03:18:48;;;;;;;;;;;12.30;70.80;;;;;;5022537;28;19928;-70
2022/04/24 03:21:16;;;;;;;;;;;12.30;70.40;;;;;;5028561;28;19926;-70
2022/04/24 03:23:43;;;;;;;;;;;12.30;71.10;;;;;;5020872;28;19925;-70
2022/04/24 03:26:13;;;;;;;;;;;12.30;71.20;;;;;;5024975;28;20001;-68
2022/04/24 03:28:40;;;;;;;;;;;12.30;71.40;;;;;;5025270;28;20014;-69
2022/04/24 03:31:06;;;;;;;;;;;12.30;71.50;;;;;;5022608;28;20176;-70
2022/04/24 03:33:33;;;;;;;;;;;12.30;71.70;;;;;;5026981;28;19925;-69
2022/04/24 03:35:59;;;;;;;;;;;12.20;71.70;;;;;;5026332;28;20404;-70
2022/04/24 03:38:27;;;;;;;;;;;12.20;71.90;;;;;;5020639;28;20618;-70
2022/04/24 03:40:54;;;;;;;;;;;12.20;71.90;;;;;;5020840;28;19925;-70
2022/04/24 03:43:20;;;;;;;;;;;12.20;72.10;;;;;;5024713;28;19933;-70
2022/04/24 03:45:47;;;;;;;;;;;12.20;72.10;;;;;;5023590;28;19929;-70
2022/04/24 03:48:13;;;;;;;;;;;12.20;72.20;;;;;;5023110;28;19932;-68
2022/04/24 03:50:40;;;;;;;;;;;12.20;72.40;;;;;;5021287;28;20411;-69
2022/04/24 03:53:07;;;;;;;;;;;12.20;72.50;;;;;;5023261;28;20297;-69
2022/04/24 03:55:35;;;;;;;;;;;12.20;72.70;;;;;;5024802;28;19925;-70
2022/04/24 03:58:01;;;;;;;;;;;12.20;72.80;;;;;;5026972;28;19940;-66
2022/04/24 04:00:28;;;;;;;;;;;12.20;72.90;;;;;;5023938;28;20459;-69
2022/04/24 04:02:54;;;;;;;;;;;12.20;72.90;;;;;;5027827;28;19932;-70
2022/04/24 04:05:22;;;;;;;;;;;12.10;73.70;;;;;;5025764;28;19929;-70
2022/04/24 04:07:48;;;;;;;;;;;12.20;73.10;;;;;;5025372;28;19925;-70
2022/04/24 04:10:15;;;;;;;;;;;12.10;73.10;;;;;;5021673;28;19991;-70
2022/04/24 04:12:43;;;;;;;;;;;12.20;73.20;;;;;;5029783;28;19933;-70
2022/04/24 04:15:10;;;;;;;;;;;12.10;73.30;;;;;;5024281;28;19933;-70
2022/04/24 04:17:36;;;;;;;;;;;12.10;73.40;;;;;;5026169;28;19928;-70
2022/04/24 04:20:03;;;;;;;;;;;12.10;73.00;;;;;;5026220;28;19933;-71
2022/04/24 04:22:30;;;;;;;;;;;12.10;73.60;;;;;;5024660;28;20598;-70
2022/04/24 04:24:56;;;;;;;;;;;12.10;73.60;;;;;;5024308;28;19933;-70
2022/04/24 04:27:26;;;;;;;;;;;12.10;73.70;;;;;;5026552;28;19932;-69
2022/04/24 04:29:55;;;;;;;;;;;12.10;74.50;;;;;;5025442;28;19969;-69
2022/04/24 04:32:21;;;;;;;;;;;12.10;73.80;;;;;;5027318;28;19940;-70
2022/04/24 04:34:48;;;;;;;;;;;12.00;73.80;;;;;;5028877;28;19933;-70
2022/04/24 04:37:14;;;;;;;;;;;12.00;74.00;;;;;;5026188;28;19980;-68
2022/04/24 04:39:41;;;;;;;;;;;12.00;74.20;;;;;;5023118;28;20401;-70
2022/04/24 04:42:07;;;;;;;;;;;12.00;74.40;;;;;;5025038;28;19929;-70
2022/04/24 04:44:34;;;;;;;;;;;12.00;74.60;;;;;;5026154;28;19936;-70
2022/04/24 04:47:02;;;;;;;;;;;12.00;74.80;;;;;;5021965;28;19956;-70
2022/04/24 04:49:29;;;;;;;;;;;12.00;74.90;;;;;;5021609;28;20396;-70
2022/04/24 04:51:55;;;;;;;;;;;12.00;75.00;;;;;;5025392;28;20036;-69
2022/04/24 04:54:22;;;;;;;;;;;12.00;75.10;;;;;;5020266;28;19964;-70
2022/04/24 04:56:48;;;;;;;;;;;12.00;75.00;;;;;;5024887;28;19997;-70
2022/04/24 04:59:15;;;;;;;;;;;12.00;75.00;;;;;;5024068;28;19937;-70
2022/04/24 05:01:41;;;;;;;;;;;12.00;75.00;;;;;;5023139;28;19929;-71
2022/04/24 05:04:09;;;;;;;;;;;11.90;74.90;;;;;;5026805;28;19949;-69
2022/04/24 05:06:37;;;;;;;;;;;11.90;74.90;;;;;;5025078;28;20317;-70
2022/04/24 05:09:04;;;;;;;;;;;11.90;75.60;;;;;;5020732;28;20393;-69
2022/04/24 05:11:30;;;;;;;;;;;11.90;74.90;;;;;;5024078;28;19929;-70
2022/04/24 05:13:57;;;;;;;;;;;11.90;74.90;;;;;;5021340;28;19935;-70
2022/04/24 05:16:23;;;;;;;;;;;11.90;75.00;;;;;;5020677;28;19932;-70
2022/04/24 05:18:50;;;;;;;;;;;11.90;75.10;;;;;;5025226;28;20687;-70
2022/04/24 05:21:18;;;;;;;;;;;11.90;75.10;;;;;;5029559;28;20007;-70
2022/04/24 05:23:46;;;;;;;;;;;11.90;75.20;;;;;;5025419;28;20673;-70
2022/04/24 05:26:12;;;;;;;;;;;11.90;75.20;;;;;;5033064;28;19929;-70
2022/04/24 05:28:39;;;;;;;;;;;11.90;75.20;;;;;;5025690;28;19937;-69
2022/04/24 05:31:06;;;;;;;;;;;11.90;75.20;;;;;;5023554;28;19937;-70
2022/04/24 05:33:32;;;;;;;;;;;11.90;75.20;;;;;;5030313;28;20450;-69
2022/04/24 05:35:59;;;;;;;;;;;11.90;75.30;;;;;;5030109;28;19929;-70
2022/04/24 05:38:27;;;;;;;;;;;11.90;75.30;;;;;;5025004;28;19933;-70
2022/04/24 05:40:53;;;;;;;;;;;11.90;75.40;;;;;;5026665;28;19933;-70
2022/04/24 05:43:20;;;;;;;;;;;11.90;75.40;;;;;;5029910;28;19971;-70
2022/04/24 05:45:46;;;;;;;;;;;11.90;75.40;;;;;;5020860;28;19932;-69
2022/04/24 05:48:13;;;;;;;;;;;11.90;75.50;;;;;;5022834;28;19970;-68
2022/04/24 05:50:39;;;;;;;;;;;11.90;75.50;;;;;;5027584;28;20312;-69
2022/04/24 05:53:06;;;;;;;;;;;11.90;75.60;;;;;;5019294;28;19937;-70
2022/04/24 05:55:34;;;;;;;;;;;11.80;75.50;;;;;;5023950;28;19929;-69
2022/04/24 05:58:00;;;;;;;;;;;11.80;75.60;;;;;;5022489;28;19937;-70
2022/04/24 06:00:27;;;;;;;;;;;11.80;75.60;;;;;;5021898;28;19937;-69
2022/04/24 06:02:54;;;;;;;;;;;11.80;75.70;;;;;;5027214;28;19940;-69
2022/04/24 06:05:21;;;;;;;;;;;11.80;75.80;;;;;;5026434;28;19953;-70
2022/04/24 06:07:47;;;;;;;;;;;12.00;76.10;;;;;;5024515;28;19928;-70
2022/04/24 06:10:14;;;;;;;;;;;11.90;76.20;;;;;;5021342;28;19936;-69
2022/04/24 06:12:45;;;;;;;;;;;11.80;76.90;;;;;;5025614;28;20423;-69
2022/04/24 06:15:15;;;;;;;;;;;11.80;76.40;;;;;;5021372;28;20003;-70
2022/04/24 06:17:42;;;;;;;;;;;11.80;76.50;;;;;;5024704;28;19959;-69
2022/04/24 06:20:09;;;;;;;;;;;11.80;76.60;;;;;;5024026;28;20397;-69
2022/04/24 06:22:41;;;;;;;;;;;11.80;77.10;;;;;;5033811;28;19933;-70
2022/04/24 06:25:08;;;;;;;;;;;11.80;77.20;;;;;;5029421;28;19933;-68
2022/04/24 06:27:35;;;;;;;;;;;11.80;77.40;;;;;;5025052;28;19936;-69
2022/04/24 06:30:03;;;;;;;;;;;11.80;77.70;;;;;;5022106;28;19944;-69
2022/04/24 06:32:29;;;;;;;;;;;11.70;77.80;;;;;;5026594;28;19932;-68
2022/04/24 06:34:56;;;;;;;;;;;11.70;78.30;;;;;;5029684;28;19936;-69
2022/04/24 06:37:22;;;;;;;;;;;11.70;78.50;;;;;;5028492;28;19928;-69
2022/04/24 06:39:49;;;;;;;;;;;11.70;78.50;;;;;;5020230;28;20685;-69
2022/04/24 06:42:15;;;;;;;;;;;11.70;78.50;;;;;;5031313;28;19958;-68
2022/04/24 06:44:42;;;;;;;;;;;12.00;78.80;;;;;;5021676;28;19937;-68
2022/04/24 06:47:10;;;;;;;;;;;11.60;78.60;;;;;;5021022;28;19956;-69
2022/04/24 06:49:36;;;;;;;;;;;11.70;78.70;;;;;;5023316;28;19937;-69
2022/04/24 06:52:03;;;;;;;;;;;11.60;78.80;;;;;;5026013;28;19929;-69
2022/04/24 06:54:29;;;;;;;;;;;11.60;78.90;;;;;;5014258;28;20325;-68
2022/04/24 06:57:01;;;;;;;;;;;11.60;79.10;;;;;;5016935;28;19934;-69
2022/04/24 06:59:28;;;;;;;;;;;11.60;79.30;;;;;;5019279;28;19940;-68
2022/04/24 07:01:54;;;;;;;;;;;11.60;79.40;;;;;;5021890;28;19936;-69
2022/04/24 07:04:22;;;;;;;;;;;11.60;79.60;;;;;;5020790;28;20359;-69
2022/04/24 07:06:49;;;;;;;;;;;11.60;79.70;;;;;;5021079;28;19979;-69
2022/04/24 07:09:15;;;;;;;;;;;11.50;79.70;;;;;;5019945;28;19939;-70
2022/04/24 07:11:42;;;;;;;;;;;11.50;80.00;;;;;;5019682;28;19929;-67
2022/04/24 07:14:09;;;;;;;;;;;11.60;80.20;;;;;;5019259;28;20002;-68
2022/04/24 07:16:35;;;;;;;;;;;11.50;80.20;;;;;;5020480;28;20344;-68
2022/04/24 07:19:02;;;;;;;;;;;11.40;80.20;;;;;;5021193;28;19933;-68
2022/04/24 07:21:30;;;;;;;;;;;11.50;80.40;;;;;;5023150;28;19940;-68
2022/04/24 07:23:57;;;;;;;;;;;11.50;80.60;;;;;;5009847;28;19936;-68
2022/04/24 07:26:23;;;;;;;;;;;11.50;80.60;;;;;;5022787;28;19936;-69
2022/04/24 07:28:50;;;;;;;;;;;11.40;80.60;;;;;;5020417;28;19929;-68
2022/04/24 07:31:19;;;;;;;;;;;11.40;80.60;;;;;;5018900;28;20008;-69
2022/04/24 07:33:46;;;;;;;;;;;11.40;80.60;;;;;;5012669;28;19929;-68
2022/04/24 07:36:12;;;;;;;;;;;11.40;80.80;;;;;;5019470;28;20070;-69
2022/04/24 07:38:41;;;;;;;;;;;11.40;81.60;;;;;;5017418;28;19941;-67
2022/04/24 07:41:07;;;;;;;;;;;11.40;80.90;;;;;;5021542;28;20032;-68
2022/04/24 07:43:34;;;;;;;;;;;11.30;81.00;;;;;;5025093;28;19933;-69
2022/04/24 07:46:01;;;;;;;;;;;11.30;81.10;;;;;;5023387;28;19933;-69
2022/04/24 07:48:27;;;;;;;;;;;11.30;81.20;;;;;;5022664;28;19991;-67
2022/04/24 07:50:54;;;;;;;;;;;11.30;81.40;;;;;;5023056;28;19933;-69
2022/04/24 07:53:21;;;;;;;;;;;11.30;82.30;;;;;;5017859;28;19929;-68
2022/04/24 07:55:50;;;;;;;;;;;11.30;81.60;;;;;;5019165;28;19925;-68
2022/04/24 07:58:16;;;;;;;;;;;11.30;81.70;;;;;;5021863;28;19960;-69
2022/04/24 08:00:43;;;;;;;;;;;11.20;81.70;;;;;;5019775;28;19929;-69
2022/04/24 08:03:10;;;;;;;;;;;11.20;81.80;;;;;;5027085;28;20487;-69
2022/04/24 08:05:38;;;;;;;;;;;11.20;82.60;;;;;;5021375;28;20328;-69
2022/04/24 08:08:05;;;;;;;;;;;11.20;81.90;;;;;;5020381;28;20029;-70
2022/04/24 08:10:33;;;;;;;;;;;11.20;82.00;;;;;;5020642;28;19926;-69
2022/04/24 08:13:04;;;;;;;;;;;11.20;82.00;;;;;;5020766;28;20015;-69
2022/04/24 08:15:31;;;;;;;;;;;11.20;82.30;;;;;;5017397;28;19960;-68
2022/04/24 08:17:57;;;;;;;;;;;11.10;82.40;;;;;;5025264;28;19925;-69
2022/04/24 08:20:24;;;;;;;;;;;11.10;82.50;;;;;;5027968;28;19933;-69
2022/04/24 08:22:52;;;;;;;;;;;11.10;82.60;;;;;;5025394;28;20540;-69
2022/04/24 08:25:19;;;;;;;;;;;11.10;82.70;;;;;;5025906;28;19929;-69
2022/04/24 08:27:46;;;;;;;;;;;11.10;82.80;;;;;;5027254;28;19925;-69
2022/04/24 08:30:15;;;;;;;;;;;11.10;83.10;;;;;;5023201;28;19931;-69
2022/04/24 08:32:42;;;;;;;;;;;11.10;83.20;;;;;;5025721;28;20599;-68
2022/04/24 08:35:09;;;;;;;;;;;11.10;83.10;;;;;;5024581;28;19925;-68
2022/04/24 08:37:36;;;;;;;;;;;11.10;83.20;;;;;;5025081;28;19933;-69
2022/04/24 08:40:03;;;;;;;;;;;11.10;83.40;;;;;;5020074;28;19932;-69
2022/04/24 08:42:30;;;;;;;;;;;11.10;84.20;;;;;;5025287;28;20463;-69
2022/04/24 08:44:57;;;;;;;;;;;11.50;83.70;;;;;;5020244;28;19999;-68
2022/04/24 08:47:25;;;;;;;;;;;11.10;83.50;;;;;;5023503;28;20052;-69
2022/04/24 08:49:53;;;;;;;;;;;11.10;83.60;;;;;;5019392;28;19926;-68
2022/04/24 08:52:20;;;;;;;;;;;11.00;83.90;;;;;;5021981;28;19929;-70
2022/04/24 08:54:47;;;;;;;;;;;11.10;84.40;;;;;;5020869;28;19983;-68
2022/04/24 08:57:13;;;;;;;;;;;11.10;84.40;;;;;;5016487;28;19933;-68
2022/04/24 08:59:40;;;;;;;;;;;11.00;84.40;;;;;;5020472;28;19929;-68
2022/04/24 09:02:09;;;;;;;;;;;11.00;84.40;;;;;;5024608;28;20666;-68
2022/04/24 09:04:37;;;;;;;;;;;11.00;84.50;;;;;;5024285;28;19925;-69
2022/04/24 09:07:05;;;;;;;;;;;11.00;84.70;;;;;;5027256;28;19932;-69
2022/04/24 09:09:32;;;;;;;;;;;11.00;84.90;;;;;;5022046;28;19925;-69
2022/04/24 09:12:08;;;;;;;;;;;11.00;85.20;;;;;;5024400;28;20052;-69
2022/04/24 09:14:35;;;;;;;;;;;11.00;85.20;;;;;;5022181;28;20001;-70
2022/04/24 09:17:04;;;;;;;;;;;11.20;85.30;;;;;;5020188;28;19925;-69
2022/04/24 09:19:31;;;;;;;;;;;11.00;85.40;;;;;;5026789;28;20657;-69
2022/04/24 09:22:03;;;;;;;;;;;11.00;85.50;;;;;;5025568;28;20668;-69
2022/04/24 09:24:39;;;;;;;;;;;11.00;85.70;;;;;;5025340;28;19929;-69
2022/04/24 09:27:05;;;;;;;;;;;11.00;85.70;;;;;;5025951;28;20032;-69
2022/04/24 09:29:32;;;;;;;;;;;11.00;85.70;;;;;;5023624;28;19929;-69
2022/04/24 09:31:58;;;;;;;;;;;11.00;85.70;;;;;;5028767;28;19932;-69
2022/04/24 09:34:29;;;;;;;;;;;11.00;85.80;;;;;;5025841;28;19979;-69
2022/04/24 09:36:59;;;;;;;;;;;11.00;85.90;;;;;;5023248;28;20839;-69
2022/04/24 09:39:28;;;;;;;;;;;11.00;85.90;;;;;;5022599;28;19979;-69
2022/04/24 09:42:01;;;;;;;;;;;11.00;86.00;;;;;;5025064;28;19932;-69
2022/04/24 09:44:35;;;;;;;;;;;11.00;85.90;;;;;;5020041;28;19929;-68
2022/04/24 09:47:02;;;;;;;;;;;11.00;85.90;;;;;;5018626;28;19930;-69
2022/04/24 09:49:28;;;;;;;;;;;11.00;86.10;;;;;;5021042;28;19936;-69
2022/04/24 09:51:55;;;;;;;;;;;11.00;86.30;;;;;;5022344;28;19932;-69
2022/04/24 09:54:22;;;;;;;;;;;11.00;86.30;;;;;;5022129;28;19925;-69
2022/04/24 09:56:52;;;;;;;;;;;11.00;86.40;;;;;;5020067;28;19925;-69
2022/04/24 09:59:20;;;;;;;;;;;11.00;86.60;;;;;;5018788;28;19988;-69
2022/04/24 10:01:47;;;;;;;;;;;11.00;86.70;;;;;;5023054;28;19944;-69
2022/04/24 10:04:14;;;;;;;;;;;10.90;86.90;;;;;;5022034;28;19929;-68
2022/04/24 10:06:42;;;;;;;;;;;11.00;86.90;;;;;;5023466;28;19929;-69
2022/04/24 10:09:10;;;;;;;;;;;10.90;86.90;;;;;;5018015;28;20019;-69
2022/04/24 10:11:36;;;;;;;;;;;10.90;86.90;;;;;;5015626;28;19928;-69
2022/04/24 10:14:07;;;;;;;;;;;11.00;86.90;;;;;;5023285;28;20607;-69
2022/04/24 10:16:45;;;;;;;;;;;11.00;87.00;;;;;;5021572;28;20673;-69
2022/04/24 10:19:15;;;;;;;;;;;10.90;86.90;;;;;;5024622;28;19980;-69
2022/04/24 10:21:48;;;;;;;;;;;10.90;87.20;;;;;;5022737;28;19925;-69
2022/04/24 10:24:15;;;;;;;;;;;10.90;87.20;;;;;;5020490;28;20040;-69
2022/04/24 10:26:51;;;;;;;;;;;10.90;87.20;;;;;;5026905;28;20571;-69
2022/04/24 10:29:20;;;;;;;;;;;10.90;87.40;;;;;;5019350;28;20003;-69
2022/04/24 10:31:47;;;;;;;;;;;10.90;87.40;;;;;;5022357;28;19956;-69
2022/04/24 10:34:14;;;;;;;;;;;10.90;87.50;;;;;;5023824;28;19929;-69
2022/04/24 10:36:53;;;;;;;;;;;10.90;87.80;;;;;;5023046;28;20411;-69
2022/04/24 10:39:22;;;;;;;;;;;10.90;87.80;;;;;;5016158;28;19925;-69
2022/04/24 10:41:53;;;;;;;;;;;11.10;87.90;;;;;;5023326;28;19926;-68
2022/04/24 10:44:22;;;;;;;;;;;10.90;87.80;;;;;;5020991;28;19929;-68
2022/04/24 10:46:49;;;;;;;;;;;10.90;87.80;;;;;;5021791;28;19932;-69
2022/04/24 10:49:16;;;;;;;;;;;10.90;87.80;;;;;;5025235;28;19929;-69
2022/04/24 10:51:43;;;;;;;;;;;10.90;87.80;;;;;;5022915;28;19928;-68
2022/04/24 10:54:13;;;;;;;;;;;10.90;87.70;;;;;;5019427;28;19925;-68
2022/04/24 10:56:41;;;;;;;;;;;11.10;87.80;;;;;;5020131;28;19925;-69
2022/04/24 10:59:08;;;;;;;;;;;10.90;87.80;;;;;;5015130;28;19936;-69
2022/04/24 11:01:37;;;;;;;;;;;10.90;87.90;;;;;;5022618;28;19987;-68
2022/04/24 11:04:07;;;;;;;;;;;10.90;87.90;;;;;;5023755;28;19947;-67
2022/04/24 11:06:34;;;;;;;;;;;10.90;88.10;;;;;;5020559;28;20396;-68
2022/04/24 11:09:07;;;;;;;;;;;10.90;88.30;;;;;;5025302;28;19936;-69
2022/04/24 11:11:36;;;;;;;;;;;10.90;88.40;;;;;;5025141;28;20385;-69
2022/04/24 11:14:02;;;;;;;;;;;10.90;88.50;;;;;;5026108;28;20006;-69
2022/04/24 11:16:29;;;;;;;;;;;10.90;88.50;;;;;;5020569;28;19929;-68
2022/04/24 11:18:58;;;;;;;;;;;10.90;88.50;;;;;;5027842;28;19925;-69
2022/04/24 11:21:25;;;;;;;;;;;10.90;88.60;;;;;;5025328;28;19935;-68
2022/04/24 11:23:58;;;;;;;;;;;10.90;88.50;;;;;;5028116;28;19995;-69
2022/04/24 11:26:25;;;;;;;;;;;10.90;88.60;;;;;;5026048;28;19925;-68
2022/04/24 11:28:51;;;;;;;;;;;10.90;88.60;;;;;;5022145;28;19929;-69
2022/04/24 11:31:18;;;;;;;;;;;10.90;88.60;;;;;;5021215;28;19925;-69
2022/04/24 11:33:52;;;;;;;;;;;10.90;88.60;;;;;;5031445;28;20365;-69
2022/04/24 11:36:21;;;;;;;;;;;10.90;88.50;;;;;;5022254;28;19933;-68
2022/04/24 11:38:48;;;;;;;;;;;10.90;88.50;;;;;;5022062;28;19987;-68
2022/04/24 11:41:15;;;;;;;;;;;10.90;88.60;;;;;;5024199;28;19925;-68
2022/04/24 11:43:42;;;;;;;;;;;10.90;88.70;;;;;;5022587;28;20019;-69
2022/04/24 11:51:48;;;;;;;;;;;10.80;88.80;;;;;;5020006;28;19987;-78
2022/04/24 11:54:15;;;;;;;;;;;10.90;88.90;;;;;;5023155;28;19932;-77
2022/04/24 11:56:41;;;;;;;;;;;10.90;89.10;;;;;;5026996;28;19936;-79
2022/04/24 11:59:13;;;;;;;;;;;10.90;89.20;;;;;;5023937;28;19929;-78
2022/04/24 12:01:40;;;;;;;;;;;10.90;89.20;;;;;;5027590;28;19932;-78
2022/04/24 12:04:06;;;;;;;;;;;10.90;89.30;;;;;;5025795;28;19959;-79
2022/04/24 12:06:33;;;;;;;;;;;10.90;89.20;;;;;;5029964;28;19925;-77
2022/04/24 12:09:07;;;;;;;;;;;10.90;89.40;;;;;;5028371;28;19949;-78
2022/04/24 12:11:35;;;;;;;;;;;10.90;89.50;;;;;;5027892;28;19955;-77
2022/04/24 12:14:02;;;;;;;;;;;10.90;89.40;;;;;;5029786;28;19995;-77
2022/04/24 12:16:28;;;;;;;;;;;11.30;89.80;;;;;;5028478;28;19929;-78
2022/04/24 12:18:56;;;;;;;;;;;10.90;89.70;;;;;;5021615;28;19929;-80
2022/04/24 12:21:23;;;;;;;;;;;10.90;89.70;;;;;;5027285;28;19975;-78
2022/04/24 12:23:49;;;;;;;;;;;10.90;89.80;;;;;;5029570;28;20265;-77
2022/04/24 12:26:17;;;;;;;;;;;10.80;89.80;;;;;;5024834;28;19929;-77
2022/04/24 12:28:44;;;;;;;;;;;10.80;89.90;;;;;;5028847;28;19929;-77
2022/04/24 12:31:19;;;;;;;;;;;10.80;89.70;;;;;;5028376;28;19928;-78
2022/04/24 12:33:46;;;;;;;;;;;10.90;89.90;;;;;;5028145;28;20644;-78
2022/04/24 12:36:14;;;;;;;;;;;10.90;89.90;;;;;;5023618;28;19946;-78
2022/04/24 12:38:40;;;;;;;;;;;10.90;90.00;;;;;;5024133;28;19951;-78
2022/04/24 12:41:10;;;;;;;;;;;10.90;89.90;;;;;;5024508;28;19983;-78
2022/04/24 12:43:38;;;;;;;;;;;10.80;89.90;;;;;;5024586;28;19929;-79
2022/04/24 12:46:05;;;;;;;;;;;10.90;90.00;;;;;;5022969;28;20424;-77
2022/04/24 12:48:31;;;;;;;;;;;10.90;89.90;;;;;;5025373;28;20097;-78
2022/04/24 12:50:58;;;;;;;;;;;10.90;89.90;;;;;;5029176;28;19929;-77
2022/04/24 12:53:24;;;;;;;;;;;10.90;89.90;;;;;;5019085;28;19936;-78
2022/04/24 12:55:51;;;;;;;;;;;10.90;89.90;;;;;;5029844;28;20309;-76
2022/04/24 12:58:18;;;;;;;;;;;10.90;90.00;;;;;;5023084;28;20055;-78
2022/04/24 13:00:46;;;;;;;;;;;10.90;90.00;;;;;;5021521;28;20392;-78
2022/04/24 13:03:14;;;;;;;;;;;10.90;90.00;;;;;;5022775;28;19926;-77
2022/04/24 13:05:42;;;;;;;;;;;10.80;89.90;;;;;;5024325;28;20583;-78
2022/04/24 13:08:09;;;;;;;;;;;10.90;89.90;;;;;;5021692;28;19937;-77
2022/04/24 13:10:35;;;;;;;;;;;10.90;89.80;;;;;;5020851;28;19932;-77
2022/04/24 13:13:02;;;;;;;;;;;10.90;89.80;;;;;;5026503;28;20031;-77
2022/04/24 13:15:30;;;;;;;;;;;10.90;90.00;;;;;;5024063;28;19937;-78
2022/04/24 13:18:09;;;;;;;;;;;10.90;90.10;;;;;;5022559;28;20008;-78
2022/04/24 13:20:38;;;;;;;;;;;10.90;90.10;;;;;;5027676;28;20372;-78
2022/04/24 13:23:05;;;;;;;;;;;10.90;90.10;;;;;;5022613;28;19976;-78
2022/04/24 13:25:32;;;;;;;;;;;10.90;90.10;;;;;;5024758;28;19937;-77
2022/04/24 13:27:58;;;;;;;;;;;10.90;90.00;;;;;;5023231;28;19991;-78
2022/04/24 13:30:25;;;;;;;;;;;10.90;90.00;;;;;;5024237;28;20603;-78
2022/04/24 13:32:52;;;;;;;;;;;10.90;89.90;;;;;;5025753;28;21351;-77
2022/04/24 13:35:20;;;;;;;;;;;10.90;89.90;;;;;;5024702;28;19925;-78
2022/04/24 13:40:30;;;;;;;;;;;10.90;89.90;;;;;;5019710;28;19932;-78
2022/04/24 13:42:57;;;;;;;;;;;10.90;90.00;;;;;;5020792;28;19933;-76
2022/04/24 13:45:24;;;;;;;;;;;10.90;90.00;;;;;;5021632;28;19933;-78
2022/04/24 13:47:52;;;;;;;;;;;10.90;90.00;;;;;;5020112;28;19952;-76
2022/04/24 13:50:20;;;;;;;;;;;10.90;90.00;;;;;;5020827;28;19937;-77
2022/04/24 13:52:47;;;;;;;;;;;10.90;90.10;;;;;;5015952;28;19933;-77
2022/04/24 13:55:13;;;;;;;;;;;10.90;90.10;;;;;;5022828;28;19929;-76
2022/04/24 13:57:40;;;;;;;;;;;11.00;90.40;;;;;;5016430;28;20024;-76
2022/04/24 14:00:07;;;;;;;;;;;11.00;90.30;;;;;;5019673;28;19932;-77
2022/04/24 14:02:34;;;;;;;;;;;11.00;90.30;;;;;;5019565;28;20015;-77
2022/04/24 14:05:02;;;;;;;;;;;10.90;90.30;;;;;;5018819;28;19940;-76
2022/04/24 14:07:30;;;;;;;;;;;11.00;90.40;;;;;;5014216;28;19933;-77
2022/04/24 14:09:56;;;;;;;;;;;11.00;90.40;;;;;;5018463;28;19929;-77
2022/04/24 14:12:23;;;;;;;;;;;11.00;90.40;;;;;;5021077;28;19933;-75
2022/04/24 14:14:49;;;;;;;;;;;11.00;90.50;;;;;;5020655;28;19929;-76
2022/04/24 14:17:16;;;;;;;;;;;11.00;90.60;;;;;;5020230;28;19929;-78
2022/04/24 14:19:42;;;;;;;;;;;11.00;90.90;;;;;;5009261;28;19940;-75
2022/04/24 14:22:12;;;;;;;;;;;11.00;91.10;;;;;;5014300;28;20626;-74
2022/04/24 14:24:41;;;;;;;;;;;11.00;91.00;;;;;;5018041;28;19932;-79